sensor_id;sensor_type;location;lat;lon;timestamp;P1;durP1;ratioP1;P2;durP2;ratioP2
74892;SDS011;63446;56.272;43.922;2023-03-12T00:00:46;7.15;;;2.38;;
74892;SDS011;63446;56.272;43.922;2023-03-12T00:03:13;7.28;;;2.97;;
74892;SDS011;63446;56.272;43.922;2023-03-12T00:05:39;7.17;;;3.03;;
74892;SDS011;63446;56.272;43.922;2023-03-12T00:08:06;8.18;;;3.38;;
74892;SDS011;63446;56.272;43.922;2023-03-12T00:10:32;10.05;;;3.42;;
74892;SDS011;63446;56.272;43.922;2023-03-12T00:12:59;8.20;;;3.00;;
74892;SDS011;63446;56.272;43.922;2023-03-12T00:15:25;7.93;;;2.55;;
74892;SDS011;63446;56.272;43.922;2023-03-12T00:17:52;8.40;;;3.53;;
74892;SDS011;63446;56.272;43.922;2023-03-12T00:20:17;8.77;;;3.13;;
74892;SDS011;63446;56.272;43.922;2023-03-12T00:22:44;11.43;;;3.60;;
74892;SDS011;63446;56.272;43.922;2023-03-12T00:25:11;7.83;;;2.90;;
74892;SDS011;63446;56.272;43.922;2023-03-12T00:27:39;8.90;;;3.08;;
74892;SDS011;63446;56.272;43.922;2023-03-12T00:30:06;10.45;;;3.17;;
74892;SDS011;63446;56.272;43.922;2023-03-12T00:32:33;8.48;;;3.30;;
74892;SDS011;63446;56.272;43.922;2023-03-12T00:35:00;10.37;;;3.70;;
74892;SDS011;63446;56.272;43.922;2023-03-12T00:37:28;7.75;;;3.05;;
74892;SDS011;63446;56.272;43.922;2023-03-12T00:39:54;5.97;;;2.22;;
74892;SDS011;63446;56.272;43.922;2023-03-12T00:42:20;8.50;;;3.20;;
74892;SDS011;63446;56.272;43.922;2023-03-12T00:44:46;9.70;;;3.47;;
74892;SDS011;63446;56.272;43.922;2023-03-12T00:47:12;9.35;;;3.90;;
74892;SDS011;63446;56.272;43.922;2023-03-12T00:49:38;12.80;;;3.88;;
74892;SDS011;63446;56.272;43.922;2023-03-12T00:52:04;12.40;;;3.70;;
74892;SDS011;63446;56.272;43.922;2023-03-12T00:54:30;10.05;;;3.53;;
74892;SDS011;63446;56.272;43.922;2023-03-12T00:56:56;12.05;;;3.78;;
74892;SDS011;63446;56.272;43.922;2023-03-12T00:59:23;11.07;;;4.03;;
74892;SDS011;63446;56.272;43.922;2023-03-12T01:01:49;11.87;;;3.87;;
74892;SDS011;63446;56.272;43.922;2023-03-12T01:04:15;11.85;;;4.07;;
74892;SDS011;63446;56.272;43.922;2023-03-12T01:06:42;10.40;;;3.90;;
74892;SDS011;63446;56.272;43.922;2023-03-12T01:09:08;12.37;;;4.17;;
74892;SDS011;63446;56.272;43.922;2023-03-12T01:11:35;10.10;;;3.67;;
74892;SDS011;63446;56.272;43.922;2023-03-12T01:14:02;13.50;;;4.15;;
74892;SDS011;63446;56.272;43.922;2023-03-12T01:16:32;16.02;;;4.18;;
74892;SDS011;63446;56.272;43.922;2023-03-12T01:18:59;11.20;;;4.50;;
74892;SDS011;63446;56.272;43.922;2023-03-12T01:21:27;12.55;;;4.78;;
74892;SDS011;63446;56.272;43.922;2023-03-12T01:23:54;10.35;;;3.88;;
74892;SDS011;63446;56.272;43.922;2023-03-12T01:26:20;12.40;;;3.63;;
74892;SDS011;63446;56.272;43.922;2023-03-12T01:28:47;12.95;;;4.38;;
74892;SDS011;63446;56.272;43.922;2023-03-12T01:31:14;10.98;;;3.95;;
74892;SDS011;63446;56.272;43.922;2023-03-12T01:33:41;11.13;;;4.88;;
74892;SDS011;63446;56.272;43.922;2023-03-12T01:36:15;13.20;;;4.70;;
74892;SDS011;63446;56.272;43.922;2023-03-12T01:38:46;12.43;;;4.53;;
74892;SDS011;63446;56.272;43.922;2023-03-12T01:41:11;11.88;;;4.25;;
74892;SDS011;63446;56.272;43.922;2023-03-12T01:43:38;11.75;;;3.20;;
74892;SDS011;63446;56.272;43.922;2023-03-12T01:48:42;12.60;;;4.63;;
74892;SDS011;63446;56.272;43.922;2023-03-12T01:51:12;13.80;;;3.97;;
74892;SDS011;63446;56.272;43.922;2023-03-12T01:53:42;11.15;;;4.05;;
74892;SDS011;63446;56.272;43.922;2023-03-12T01:56:11;17.25;;;4.95;;
74892;SDS011;63446;56.272;43.922;2023-03-12T01:58:41;9.73;;;3.97;;
74892;SDS011;63446;56.272;43.922;2023-03-12T02:01:11;16.57;;;5.93;;
74892;SDS011;63446;56.272;43.922;2023-03-12T02:03:37;14.85;;;5.47;;
74892;SDS011;63446;56.272;43.922;2023-03-12T02:06:07;16.50;;;5.10;;
74892;SDS011;63446;56.272;43.922;2023-03-12T02:08:40;13.93;;;5.20;;
74892;SDS011;63446;56.272;43.922;2023-03-12T02:11:09;13.30;;;5.05;;
74892;SDS011;63446;56.272;43.922;2023-03-12T02:13:35;16.57;;;5.00;;
74892;SDS011;63446;56.272;43.922;2023-03-12T02:16:01;15.60;;;5.57;;
74892;SDS011;63446;56.272;43.922;2023-03-12T02:18:28;14.57;;;5.82;;
74892;SDS011;63446;56.272;43.922;2023-03-12T02:20:58;16.35;;;5.55;;
74892;SDS011;63446;56.272;43.922;2023-03-12T02:24:05;18.73;;;5.93;;
74892;SDS011;63446;56.272;43.922;2023-03-12T02:26:35;16.43;;;6.40;;
74892;SDS011;63446;56.272;43.922;2023-03-12T02:29:04;15.07;;;5.22;;
74892;SDS011;63446;56.272;43.922;2023-03-12T02:31:34;13.63;;;3.95;;
74892;SDS011;63446;56.272;43.922;2023-03-12T02:34:05;14.93;;;5.38;;
74892;SDS011;63446;56.272;43.922;2023-03-12T02:36:31;17.17;;;5.93;;
74892;SDS011;63446;56.272;43.922;2023-03-12T02:38:58;17.23;;;6.47;;
74892;SDS011;63446;56.272;43.922;2023-03-12T02:41:28;16.23;;;6.07;;
74892;SDS011;63446;56.272;43.922;2023-03-12T02:43:58;14.27;;;5.22;;
74892;SDS011;63446;56.272;43.922;2023-03-12T02:46:29;16.27;;;6.25;;
74892;SDS011;63446;56.272;43.922;2023-03-12T02:48:58;14.60;;;5.05;;
74892;SDS011;63446;56.272;43.922;2023-03-12T02:51:25;14.68;;;5.72;;
74892;SDS011;63446;56.272;43.922;2023-03-12T02:53:51;15.53;;;5.97;;
74892;SDS011;63446;56.272;43.922;2023-03-12T02:56:20;16.52;;;6.15;;
74892;SDS011;63446;56.272;43.922;2023-03-12T02:58:51;16.58;;;5.45;;
74892;SDS011;63446;56.272;43.922;2023-03-12T03:01:16;18.17;;;6.35;;
74892;SDS011;63446;56.272;43.922;2023-03-12T03:03:44;17.42;;;6.22;;
74892;SDS011;63446;56.272;43.922;2023-03-12T03:06:10;17.50;;;5.53;;
74892;SDS011;63446;56.272;43.922;2023-03-12T03:08:36;16.77;;;6.82;;
74892;SDS011;63446;56.272;43.922;2023-03-12T03:11:01;17.53;;;6.00;;
74892;SDS011;63446;56.272;43.922;2023-03-12T03:13:28;15.77;;;5.50;;
74892;SDS011;63446;56.272;43.922;2023-03-12T03:15:55;14.38;;;6.07;;
74892;SDS011;63446;56.272;43.922;2023-03-12T03:18:27;14.73;;;5.47;;
74892;SDS011;63446;56.272;43.922;2023-03-12T03:20:57;14.07;;;5.60;;
74892;SDS011;63446;56.272;43.922;2023-03-12T03:23:31;14.45;;;4.90;;
74892;SDS011;63446;56.272;43.922;2023-03-12T03:25:57;15.48;;;5.00;;
74892;SDS011;63446;56.272;43.922;2023-03-12T03:28:24;17.52;;;6.47;;
74892;SDS011;63446;56.272;43.922;2023-03-12T03:30:53;12.73;;;5.20;;
74892;SDS011;63446;56.272;43.922;2023-03-12T03:33:23;15.57;;;6.10;;
74892;SDS011;63446;56.272;43.922;2023-03-12T03:35:49;16.23;;;6.50;;
74892;SDS011;63446;56.272;43.922;2023-03-12T03:38:16;18.58;;;6.50;;
74892;SDS011;63446;56.272;43.922;2023-03-12T03:40:42;17.75;;;6.63;;
74892;SDS011;63446;56.272;43.922;2023-03-12T03:43:09;18.30;;;5.70;;
74892;SDS011;63446;56.272;43.922;2023-03-12T03:45:35;16.92;;;6.07;;
74892;SDS011;63446;56.272;43.922;2023-03-12T03:48:01;20.70;;;7.05;;
74892;SDS011;63446;56.272;43.922;2023-03-12T03:50:28;16.42;;;5.78;;
74892;SDS011;63446;56.272;43.922;2023-03-12T03:52:54;10.52;;;4.60;;
74892;SDS011;63446;56.272;43.922;2023-03-12T03:55:21;20.57;;;6.80;;
74892;SDS011;63446;56.272;43.922;2023-03-12T03:57:47;16.90;;;6.82;;
74892;SDS011;63446;56.272;43.922;2023-03-12T04:00:14;16.95;;;6.90;;
74892;SDS011;63446;56.272;43.922;2023-03-12T04:02:45;17.57;;;6.20;;
74892;SDS011;63446;56.272;43.922;2023-03-12T04:05:12;17.10;;;5.63;;
74892;SDS011;63446;56.272;43.922;2023-03-12T04:07:41;16.40;;;5.40;;
74892;SDS011;63446;56.272;43.922;2023-03-12T04:10:07;19.52;;;7.10;;
74892;SDS011;63446;56.272;43.922;2023-03-12T04:12:34;18.58;;;7.30;;
74892;SDS011;63446;56.272;43.922;2023-03-12T04:15:01;19.70;;;8.47;;
74892;SDS011;63446;56.272;43.922;2023-03-12T04:17:28;19.95;;;7.65;;
74892;SDS011;63446;56.272;43.922;2023-03-12T04:19:55;20.58;;;6.63;;
74892;SDS011;63446;56.272;43.922;2023-03-12T04:22:21;20.08;;;6.57;;
74892;SDS011;63446;56.272;43.922;2023-03-12T04:24:47;18.20;;;6.23;;
74892;SDS011;63446;56.272;43.922;2023-03-12T04:27:13;21.30;;;7.70;;
74892;SDS011;63446;56.272;43.922;2023-03-12T04:29:40;23.67;;;8.02;;
74892;SDS011;63446;56.272;43.922;2023-03-12T04:32:07;16.07;;;5.97;;
74892;SDS011;63446;56.272;43.922;2023-03-12T04:34:34;20.00;;;7.20;;
74892;SDS011;63446;56.272;43.922;2023-03-12T04:37:00;19.92;;;7.72;;
74892;SDS011;63446;56.272;43.922;2023-03-12T04:39:28;19.60;;;7.20;;
74892;SDS011;63446;56.272;43.922;2023-03-12T04:41:54;15.90;;;5.90;;
74892;SDS011;63446;56.272;43.922;2023-03-12T04:44:20;18.77;;;7.17;;
74892;SDS011;63446;56.272;43.922;2023-03-12T04:46:46;20.40;;;6.95;;
74892;SDS011;63446;56.272;43.922;2023-03-12T04:49:15;21.23;;;7.05;;
74892;SDS011;63446;56.272;43.922;2023-03-12T04:51:41;16.13;;;7.20;;
74892;SDS011;63446;56.272;43.922;2023-03-12T04:54:07;23.17;;;6.78;;
74892;SDS011;63446;56.272;43.922;2023-03-12T04:56:36;19.27;;;6.47;;
74892;SDS011;63446;56.272;43.922;2023-03-12T04:59:02;7.80;;;3.10;;
74892;SDS011;63446;56.272;43.922;2023-03-12T05:01:29;17.70;;;5.73;;
74892;SDS011;63446;56.272;43.922;2023-03-12T05:04:00;11.65;;;3.90;;
74892;SDS011;63446;56.272;43.922;2023-03-12T05:06:27;17.25;;;6.70;;
74892;SDS011;63446;56.272;43.922;2023-03-12T05:08:54;16.67;;;6.20;;
74892;SDS011;63446;56.272;43.922;2023-03-12T05:11:22;20.38;;;7.30;;
74892;SDS011;63446;56.272;43.922;2023-03-12T05:13:48;16.37;;;5.67;;
74892;SDS011;63446;56.272;43.922;2023-03-12T05:16:14;18.60;;;6.45;;
74892;SDS011;63446;56.272;43.922;2023-03-12T05:18:41;13.57;;;4.97;;
74892;SDS011;63446;56.272;43.922;2023-03-12T05:21:13;16.13;;;6.40;;
74892;SDS011;63446;56.272;43.922;2023-03-12T05:23:42;16.55;;;6.35;;
74892;SDS011;63446;56.272;43.922;2023-03-12T05:26:43;17.57;;;7.00;;
74892;SDS011;63446;56.272;43.922;2023-03-12T05:29:11;17.85;;;6.78;;
74892;SDS011;63446;56.272;43.922;2023-03-12T05:31:37;9.75;;;3.53;;
74892;SDS011;63446;56.272;43.922;2023-03-12T05:34:05;14.05;;;5.38;;
74892;SDS011;63446;56.272;43.922;2023-03-12T05:36:35;13.52;;;4.90;;
74892;SDS011;63446;56.272;43.922;2023-03-12T05:39:00;14.20;;;5.43;;
74892;SDS011;63446;56.272;43.922;2023-03-12T05:41:30;16.73;;;5.95;;
74892;SDS011;63446;56.272;43.922;2023-03-12T05:44:02;10.18;;;4.00;;
74892;SDS011;63446;56.272;43.922;2023-03-12T05:46:29;14.23;;;5.80;;
74892;SDS011;63446;56.272;43.922;2023-03-12T05:48:56;12.35;;;5.40;;
74892;SDS011;63446;56.272;43.922;2023-03-12T05:51:23;14.77;;;5.63;;
74892;SDS011;63446;56.272;43.922;2023-03-12T05:53:49;13.02;;;5.13;;
74892;SDS011;63446;56.272;43.922;2023-03-12T05:56:16;15.87;;;5.53;;
74892;SDS011;63446;56.272;43.922;2023-03-12T05:58:43;13.57;;;5.43;;
74892;SDS011;63446;56.272;43.922;2023-03-12T06:01:13;12.38;;;5.47;;
74892;SDS011;63446;56.272;43.922;2023-03-12T06:03:44;13.45;;;4.70;;
74892;SDS011;63446;56.272;43.922;2023-03-12T06:06:11;12.55;;;5.03;;
74892;SDS011;63446;56.272;43.922;2023-03-12T06:08:39;12.13;;;5.17;;
74892;SDS011;63446;56.272;43.922;2023-03-12T06:11:06;13.57;;;5.20;;
74892;SDS011;63446;56.272;43.922;2023-03-12T06:13:33;11.98;;;4.88;;
74892;SDS011;63446;56.272;43.922;2023-03-12T06:16:05;12.13;;;5.00;;
74892;SDS011;63446;56.272;43.922;2023-03-12T06:18:33;14.00;;;5.50;;
74892;SDS011;63446;56.272;43.922;2023-03-12T06:21:10;11.57;;;4.93;;
74892;SDS011;63446;56.272;43.922;2023-03-12T06:23:37;12.30;;;3.67;;
74892;SDS011;63446;56.272;43.922;2023-03-12T06:26:05;14.82;;;5.20;;
74892;SDS011;63446;56.272;43.922;2023-03-12T06:28:32;10.40;;;4.60;;
74892;SDS011;63446;56.272;43.922;2023-03-12T06:30:58;12.18;;;4.80;;
74892;SDS011;63446;56.272;43.922;2023-03-12T06:33:24;12.80;;;4.97;;
74892;SDS011;63446;56.272;43.922;2023-03-12T06:35:56;11.50;;;4.68;;
74892;SDS011;63446;56.272;43.922;2023-03-12T06:38:23;13.35;;;5.00;;
74892;SDS011;63446;56.272;43.922;2023-03-12T06:40:54;13.25;;;5.15;;
74892;SDS011;63446;56.272;43.922;2023-03-12T06:43:33;13.63;;;5.20;;
74892;SDS011;63446;56.272;43.922;2023-03-12T06:46:00;12.50;;;5.03;;
74892;SDS011;63446;56.272;43.922;2023-03-12T06:48:27;13.10;;;4.82;;
74892;SDS011;63446;56.272;43.922;2023-03-12T06:50:55;15.30;;;5.53;;
74892;SDS011;63446;56.272;43.922;2023-03-12T06:53:21;12.82;;;4.78;;
74892;SDS011;63446;56.272;43.922;2023-03-12T06:55:48;9.70;;;3.10;;
74892;SDS011;63446;56.272;43.922;2023-03-12T06:58:15;13.85;;;4.65;;
74892;SDS011;63446;56.272;43.922;2023-03-12T07:00:41;12.02;;;4.97;;
74892;SDS011;63446;56.272;43.922;2023-03-12T07:03:07;13.57;;;5.18;;
74892;SDS011;63446;56.272;43.922;2023-03-12T07:05:33;11.75;;;5.15;;
74892;SDS011;63446;56.272;43.922;2023-03-12T07:07:59;14.43;;;4.70;;
74892;SDS011;63446;56.272;43.922;2023-03-12T07:10:25;14.77;;;5.63;;
74892;SDS011;63446;56.272;43.922;2023-03-12T07:12:55;14.40;;;5.50;;
74892;SDS011;63446;56.272;43.922;2023-03-12T07:15:21;13.02;;;5.28;;
74892;SDS011;63446;56.272;43.922;2023-03-12T07:17:48;12.37;;;4.83;;
74892;SDS011;63446;56.272;43.922;2023-03-12T07:20:14;12.82;;;4.88;;
74892;SDS011;63446;56.272;43.922;2023-03-12T07:22:40;14.32;;;4.70;;
74892;SDS011;63446;56.272;43.922;2023-03-12T07:25:06;11.80;;;4.97;;
74892;SDS011;63446;56.272;43.922;2023-03-12T07:27:32;10.95;;;4.45;;
74892;SDS011;63446;56.272;43.922;2023-03-12T07:29:58;12.10;;;4.67;;
74892;SDS011;63446;56.272;43.922;2023-03-12T07:32:24;11.02;;;4.50;;
74892;SDS011;63446;56.272;43.922;2023-03-12T07:34:51;11.77;;;4.53;;
74892;SDS011;63446;56.272;43.922;2023-03-12T07:37:17;9.87;;;4.17;;
74892;SDS011;63446;56.272;43.922;2023-03-12T07:39:42;13.02;;;4.68;;
74892;SDS011;63446;56.272;43.922;2023-03-12T07:42:09;11.20;;;4.40;;
74892;SDS011;63446;56.272;43.922;2023-03-12T07:44:37;11.60;;;4.83;;
74892;SDS011;63446;56.272;43.922;2023-03-12T07:47:03;10.50;;;4.43;;
74892;SDS011;63446;56.272;43.922;2023-03-12T07:49:29;10.75;;;4.70;;
74892;SDS011;63446;56.272;43.922;2023-03-12T07:51:55;11.60;;;4.35;;
74892;SDS011;63446;56.272;43.922;2023-03-12T07:54:21;12.23;;;4.30;;
74892;SDS011;63446;56.272;43.922;2023-03-12T07:56:50;12.68;;;4.88;;
74892;SDS011;63446;56.272;43.922;2023-03-12T07:59:16;12.90;;;4.55;;
74892;SDS011;63446;56.272;43.922;2023-03-12T08:01:43;9.70;;;4.03;;
74892;SDS011;63446;56.272;43.922;2023-03-12T08:04:10;12.77;;;4.60;;
74892;SDS011;63446;56.272;43.922;2023-03-12T08:06:35;12.52;;;5.05;;
74892;SDS011;63446;56.272;43.922;2023-03-12T08:09:02;12.38;;;4.68;;
74892;SDS011;63446;56.272;43.922;2023-03-12T08:11:28;11.33;;;4.50;;
74892;SDS011;63446;56.272;43.922;2023-03-12T08:13:55;12.27;;;4.68;;
74892;SDS011;63446;56.272;43.922;2023-03-12T08:16:21;9.75;;;4.47;;
74892;SDS011;63446;56.272;43.922;2023-03-12T08:18:46;14.73;;;4.93;;
74892;SDS011;63446;56.272;43.922;2023-03-12T08:21:12;10.50;;;3.97;;
74892;SDS011;63446;56.272;43.922;2023-03-12T08:23:39;10.27;;;4.57;;
74892;SDS011;63446;56.272;43.922;2023-03-12T08:26:05;10.13;;;4.50;;
74892;SDS011;63446;56.272;43.922;2023-03-12T08:28:31;10.70;;;4.03;;
74892;SDS011;63446;56.272;43.922;2023-03-12T08:30:57;9.57;;;4.10;;
74892;SDS011;63446;56.272;43.922;2023-03-12T08:33:24;10.65;;;4.75;;
74892;SDS011;63446;56.272;43.922;2023-03-12T08:35:50;11.00;;;4.53;;
74892;SDS011;63446;56.272;43.922;2023-03-12T08:38:16;11.43;;;4.70;;
74892;SDS011;63446;56.272;43.922;2023-03-12T08:40:43;13.60;;;5.38;;
74892;SDS011;63446;56.272;43.922;2023-03-12T08:43:09;9.38;;;4.30;;
74892;SDS011;63446;56.272;43.922;2023-03-12T08:45:35;10.88;;;4.47;;
74892;SDS011;63446;56.272;43.922;2023-03-12T08:48:02;9.15;;;4.43;;
74892;SDS011;63446;56.272;43.922;2023-03-12T08:50:28;9.07;;;4.60;;
74892;SDS011;63446;56.272;43.922;2023-03-12T08:52:59;10.50;;;4.88;;
74892;SDS011;63446;56.272;43.922;2023-03-12T08:55:26;11.15;;;4.63;;
74892;SDS011;63446;56.272;43.922;2023-03-12T08:57:54;11.48;;;5.32;;
74892;SDS011;63446;56.272;43.922;2023-03-12T09:00:21;12.02;;;5.05;;
74892;SDS011;63446;56.272;43.922;2023-03-12T09:02:49;11.57;;;5.15;;
74892;SDS011;63446;56.272;43.922;2023-03-12T09:05:16;11.65;;;5.03;;
74892;SDS011;63446;56.272;43.922;2023-03-12T09:07:42;9.82;;;4.60;;
74892;SDS011;63446;56.272;43.922;2023-03-12T09:10:08;11.03;;;5.30;;
74892;SDS011;63446;56.272;43.922;2023-03-12T09:12:34;12.35;;;6.10;;
74892;SDS011;63446;56.272;43.922;2023-03-12T09:15:01;12.20;;;6.07;;
74892;SDS011;63446;56.272;43.922;2023-03-12T09:17:28;10.65;;;5.28;;
74892;SDS011;63446;56.272;43.922;2023-03-12T09:19:54;11.48;;;5.70;;
74892;SDS011;63446;56.272;43.922;2023-03-12T09:22:20;11.95;;;5.50;;
74892;SDS011;63446;56.272;43.922;2023-03-12T09:24:46;13.57;;;6.33;;
74892;SDS011;63446;56.272;43.922;2023-03-12T09:27:11;11.38;;;5.55;;
74892;SDS011;63446;56.272;43.922;2023-03-12T09:29:37;12.20;;;5.27;;
74892;SDS011;63446;56.272;43.922;2023-03-12T09:32:03;10.45;;;5.63;;
74892;SDS011;63446;56.272;43.922;2023-03-12T09:34:29;12.20;;;5.40;;
74892;SDS011;63446;56.272;43.922;2023-03-12T09:36:55;13.33;;;5.77;;
74892;SDS011;63446;56.272;43.922;2023-03-12T09:39:21;11.52;;;5.63;;
74892;SDS011;63446;56.272;43.922;2023-03-12T09:41:48;9.85;;;4.90;;
74892;SDS011;63446;56.272;43.922;2023-03-12T09:47:07;12.37;;;5.47;;
74892;SDS011;63446;56.272;43.922;2023-03-12T09:49:45;10.60;;;4.43;;
74892;SDS011;63446;56.272;43.922;2023-03-12T09:52:39;12.98;;;5.40;;
74892;SDS011;63446;56.272;43.922;2023-03-12T09:57:41;10.45;;;4.93;;
74892;SDS011;63446;56.272;43.922;2023-03-12T10:00:12;12.07;;;5.07;;
74892;SDS011;63446;56.272;43.922;2023-03-12T10:13:22;10.50;;;5.03;;
74892;SDS011;63446;56.272;43.922;2023-03-12T10:19:13;12.30;;;5.18;;
74892;SDS011;63446;56.272;43.922;2023-03-12T10:27:08;9.70;;;4.63;;
74892;SDS011;63446;56.272;43.922;2023-03-12T10:29:40;11.40;;;5.25;;
74892;SDS011;63446;56.272;43.922;2023-03-12T10:33:10;11.38;;;4.65;;
74892;SDS011;63446;56.272;43.922;2023-03-12T10:35:18;9.95;;;4.70;;
74892;SDS011;63446;56.272;43.922;2023-03-12T10:40:19;10.67;;;5.37;;
74892;SDS011;63446;56.272;43.922;2023-03-12T10:42:47;8.45;;;4.28;;
74892;SDS011;63446;56.272;43.922;2023-03-12T10:45:21;13.10;;;5.32;;
74892;SDS011;63446;56.272;43.922;2023-03-12T10:47:54;10.37;;;4.50;;
74892;SDS011;63446;56.272;43.922;2023-03-12T10:50:30;11.77;;;4.93;;
74892;SDS011;63446;56.272;43.922;2023-03-12T11:02:54;12.83;;;4.30;;
74892;SDS011;63446;56.272;43.922;2023-03-12T11:09:43;10.43;;;4.45;;
74892;SDS011;63446;56.272;43.922;2023-03-12T11:16:24;9.05;;;4.10;;
74892;SDS011;63446;56.272;43.922;2023-03-12T11:27:58;13.32;;;5.35;;
74892;SDS011;63446;56.272;43.922;2023-03-12T11:34:49;11.18;;;4.35;;
74892;SDS011;63446;56.272;43.922;2023-03-12T11:53:21;13.00;;;5.28;;
74892;SDS011;63446;56.272;43.922;2023-03-12T12:00:37;10.65;;;4.53;;
74892;SDS011;63446;56.272;43.922;2023-03-12T12:38:10;17.35;;;6.15;;
74892;SDS011;63446;56.272;43.922;2023-03-12T12:45:01;14.38;;;5.90;;
74892;SDS011;63446;56.272;43.922;2023-03-12T12:51:49;16.25;;;6.65;;
74892;SDS011;63446;56.272;43.922;2023-03-12T12:58:55;17.45;;;6.85;;
74892;SDS011;63446;56.272;43.922;2023-03-12T13:05:58;15.38;;;6.07;;
74892;SDS011;63446;56.272;43.922;2023-03-12T13:12:50;17.40;;;6.22;;
74892;SDS011;63446;56.272;43.922;2023-03-12T13:23:31;18.52;;;6.28;;
74892;SDS011;63446;56.272;43.922;2023-03-12T13:29:35;13.68;;;5.15;;
74892;SDS011;63446;56.272;43.922;2023-03-12T13:31:58;16.73;;;7.47;;
74892;SDS011;63446;56.272;43.922;2023-03-12T13:36:52;21.83;;;6.75;;
74892;SDS011;63446;56.272;43.922;2023-03-12T13:39:29;17.00;;;7.20;;
74892;SDS011;63446;56.272;43.922;2023-03-12T13:44:47;16.65;;;5.97;;
74892;SDS011;63446;56.272;43.922;2023-03-12T13:50:07;16.13;;;6.30;;
74892;SDS011;63446;56.272;43.922;2023-03-12T13:52:40;17.10;;;6.60;;
74892;SDS011;63446;56.272;43.922;2023-03-12T13:55:20;16.30;;;7.05;;
74892;SDS011;63446;56.272;43.922;2023-03-12T13:57:51;18.73;;;7.20;;
74892;SDS011;63446;56.272;43.922;2023-03-12T14:00:23;19.60;;;7.78;;
74892;SDS011;63446;56.272;43.922;2023-03-12T14:03:03;15.25;;;6.63;;
74892;SDS011;63446;56.272;43.922;2023-03-12T14:05:43;18.70;;;6.67;;
74892;SDS011;63446;56.272;43.922;2023-03-12T14:08:17;15.82;;;6.80;;
74892;SDS011;63446;56.272;43.922;2023-03-12T14:16:14;17.77;;;7.30;;
74892;SDS011;63446;56.272;43.922;2023-03-12T14:18:44;19.27;;;7.90;;
74892;SDS011;63446;56.272;43.922;2023-03-12T14:21:13;13.10;;;5.47;;
74892;SDS011;63446;56.272;43.922;2023-03-12T14:24:16;21.15;;;7.40;;
74892;SDS011;63446;56.272;43.922;2023-03-12T14:26:48;20.58;;;6.65;;
74892;SDS011;63446;56.272;43.922;2023-03-12T14:29:25;16.55;;;6.20;;
74892;SDS011;63446;56.272;43.922;2023-03-12T14:31:56;12.83;;;5.47;;
74892;SDS011;63446;56.272;43.922;2023-03-12T14:34:30;16.50;;;6.82;;
74892;SDS011;63446;56.272;43.922;2023-03-12T14:39:44;16.58;;;7.03;;
74892;SDS011;63446;56.272;43.922;2023-03-12T14:42:20;18.90;;;8.05;;
74892;SDS011;63446;56.272;43.922;2023-03-12T14:44:56;21.23;;;8.13;;
74892;SDS011;63446;56.272;43.922;2023-03-12T14:47:24;18.50;;;6.95;;
74892;SDS011;63446;56.272;43.922;2023-03-12T14:49:50;17.85;;;7.32;;
74892;SDS011;63446;56.272;43.922;2023-03-12T14:52:20;25.02;;;8.45;;
74892;SDS011;63446;56.272;43.922;2023-03-12T14:55:10;14.07;;;5.93;;
74892;SDS011;63446;56.272;43.922;2023-03-12T14:57:38;20.63;;;7.25;;
74892;SDS011;63446;56.272;43.922;2023-03-12T15:00:04;20.35;;;6.85;;
74892;SDS011;63446;56.272;43.922;2023-03-12T15:02:39;19.63;;;7.60;;
74892;SDS011;63446;56.272;43.922;2023-03-12T15:05:13;19.60;;;8.25;;
74892;SDS011;63446;56.272;43.922;2023-03-12T15:07:42;16.67;;;6.93;;
74892;SDS011;63446;56.272;43.922;2023-03-12T15:10:26;22.30;;;6.88;;
74892;SDS011;63446;56.272;43.922;2023-03-12T15:12:55;18.75;;;7.68;;
74892;SDS011;63446;56.272;43.922;2023-03-12T15:15:39;16.42;;;7.30;;
74892;SDS011;63446;56.272;43.922;2023-03-12T15:18:10;16.95;;;6.53;;
74892;SDS011;63446;56.272;43.922;2023-03-12T15:20:41;16.30;;;6.57;;
74892;SDS011;63446;56.272;43.922;2023-03-12T15:23:08;14.27;;;6.75;;
74892;SDS011;63446;56.272;43.922;2023-03-12T15:25:37;15.57;;;6.22;;
74892;SDS011;63446;56.272;43.922;2023-03-12T15:28:05;20.55;;;7.65;;
74892;SDS011;63446;56.272;43.922;2023-03-12T15:30:33;16.27;;;6.53;;
74892;SDS011;63446;56.272;43.922;2023-03-12T15:33:42;15.43;;;6.43;;
74892;SDS011;63446;56.272;43.922;2023-03-12T15:36:00;14.80;;;6.10;;
74892;SDS011;63446;56.272;43.922;2023-03-12T15:38:45;16.05;;;6.43;;
74892;SDS011;63446;56.272;43.922;2023-03-12T15:41:16;16.88;;;6.75;;
74892;SDS011;63446;56.272;43.922;2023-03-12T15:43:47;12.82;;;5.93;;
74892;SDS011;63446;56.272;43.922;2023-03-12T15:46:24;14.80;;;5.90;;
74892;SDS011;63446;56.272;43.922;2023-03-12T15:48:58;13.48;;;5.75;;
74892;SDS011;63446;56.272;43.922;2023-03-12T15:54:00;17.02;;;5.75;;
74892;SDS011;63446;56.272;43.922;2023-03-12T15:56:27;12.75;;;4.85;;
74892;SDS011;63446;56.272;43.922;2023-03-12T15:59:04;16.40;;;6.47;;
74892;SDS011;63446;56.272;43.922;2023-03-12T16:01:49;11.73;;;4.43;;
74892;SDS011;63446;56.272;43.922;2023-03-12T16:04:17;15.50;;;6.20;;
74892;SDS011;63446;56.272;43.922;2023-03-12T16:06:44;16.67;;;6.30;;
74892;SDS011;63446;56.272;43.922;2023-03-12T16:09:17;15.60;;;6.20;;
74892;SDS011;63446;56.272;43.922;2023-03-12T16:11:46;13.20;;;4.50;;
74892;SDS011;63446;56.272;43.922;2023-03-12T16:16:49;12.88;;;5.43;;
74892;SDS011;63446;56.272;43.922;2023-03-12T16:19:16;17.13;;;5.80;;
74892;SDS011;63446;56.272;43.922;2023-03-12T16:21:44;13.85;;;5.53;;
74892;SDS011;63446;56.272;43.922;2023-03-12T16:24:10;14.23;;;5.20;;
74892;SDS011;63446;56.272;43.922;2023-03-12T16:26:55;13.30;;;5.22;;
74892;SDS011;63446;56.272;43.922;2023-03-12T16:29:31;14.23;;;5.32;;
74892;SDS011;63446;56.272;43.922;2023-03-12T16:31:57;11.35;;;4.47;;
74892;SDS011;63446;56.272;43.922;2023-03-12T16:34:24;12.88;;;4.78;;
74892;SDS011;63446;56.272;43.922;2023-03-12T16:36:50;11.33;;;4.90;;
74892;SDS011;63446;56.272;43.922;2023-03-12T16:39:16;9.68;;;3.75;;
74892;SDS011;63446;56.272;43.922;2023-03-12T16:41:43;11.75;;;4.60;;
74892;SDS011;63446;56.272;43.922;2023-03-12T16:44:11;10.48;;;3.95;;
74892;SDS011;63446;56.272;43.922;2023-03-12T16:46:43;10.27;;;4.38;;
74892;SDS011;63446;56.272;43.922;2023-03-12T16:49:14;10.33;;;4.13;;
74892;SDS011;63446;56.272;43.922;2023-03-12T16:51:41;9.25;;;4.25;;
74892;SDS011;63446;56.272;43.922;2023-03-12T16:54:07;8.60;;;3.90;;
74892;SDS011;63446;56.272;43.922;2023-03-12T16:56:33;8.77;;;3.85;;
74892;SDS011;63446;56.272;43.922;2023-03-12T16:59:16;9.17;;;3.80;;
74892;SDS011;63446;56.272;43.922;2023-03-12T17:01:49;9.32;;;3.85;;
74892;SDS011;63446;56.272;43.922;2023-03-12T17:04:16;9.27;;;3.85;;
74892;SDS011;63446;56.272;43.922;2023-03-12T17:06:41;9.57;;;4.05;;
74892;SDS011;63446;56.272;43.922;2023-03-12T17:09:08;10.40;;;3.17;;
74892;SDS011;63446;56.272;43.922;2023-03-12T17:11:34;12.55;;;4.75;;
74892;SDS011;63446;56.272;43.922;2023-03-12T17:14:23;9.63;;;4.05;;
74892;SDS011;63446;56.272;43.922;2023-03-12T17:16:49;9.43;;;3.85;;
74892;SDS011;63446;56.272;43.922;2023-03-12T17:19:16;8.90;;;4.05;;
74892;SDS011;63446;56.272;43.922;2023-03-12T17:21:42;10.50;;;4.30;;
74892;SDS011;63446;56.272;43.922;2023-03-12T17:24:09;10.07;;;3.60;;
74892;SDS011;63446;56.272;43.922;2023-03-12T17:26:38;9.27;;;3.28;;